RCSC weather

CLOSED Huwei Airstrip
Huwei, Yunlin County, Taiwan

Public forecast

Using degrees Celsius for public forecast. Weather courtesy of forecast.io.

Closest aviation weather report (METAR) to Huwei Airstrip

Report is more than 6 hours old.

Closest report is Chiayi Airport, 16.1 nm (29.8 km) S. Retrieved 2014/03/11 00:00 UTC (6 years ago):

RCKU 110000Z 03005KT 1600 VCSH BR SCT008 BKN018 BKN050 16/14 Q1022 NOSIG RMK A3020 VCSH W

Closest aviation forecast (TAF) to Huwei Airstrip

Closest forecast is Taichung Ching Chuang Kang Airport, 33.9 nm (62.8 km) NNE. Retrieved 2020/02/21 06:21 UTC (51 minutes ago):

TAF RCMQ 210500Z 2106/2206 02012KT 7000 SCT006 BKN016 TX24/2205Z TN15/2121Z BECMG 2108/2110 02004KT 4000 BR BECMG 2112/2114 1600 BR SCT004 BKN010 TEMPO 2115/2120 0800 FG BKN002 BKN010 BECMG 2123/2201 4000 BR FEW006 BKN016 BECMG 2202/2205 02008KT 7000 FEW008 BKN030